Time;durP1;ratioP1;P1;durP2;ratioP2;P2;SDS_P1;SDS_P2;PMS_P1;PMS_P2;Temp;Humidity;BMP_temperature;BMP_pressure;BME280_temperature;BME280_humidity;BME280_pressure;Samples;Min_cycle;Max_cycle;Signal;HPM_P1;HPM_P2
2023/01/02 00:00:51;;;;;;;21.50;9.77;;;11.70;99.90;;;;;;5104580;28;20290;-70
2023/01/02 00:03:18;;;;;;;22.57;9.53;;;11.70;99.90;;;;;;5110768;28;20225;-70
2023/01/02 00:05:45;;;;;;;20.50;9.33;;;11.70;99.90;;;;;;5090799;28;20309;-70
2023/01/02 00:08:11;;;;;;;20.33;9.33;;;11.80;99.90;;;;;;5109212;28;20641;-70
2023/01/02 00:10:38;;;;;;;19.97;8.90;;;11.80;99.90;;;;;;5110339;28;20207;-70
2023/01/02 00:13:05;;;;;;;16.77;8.80;;;11.80;99.90;;;;;;5110176;28;20213;-70
2023/01/02 00:15:31;;;;;;;19.67;9.00;;;11.90;99.90;;;;;;5092290;28;20238;-70
2023/01/02 00:17:58;;;;;;;20.43;9.67;;;11.90;99.90;;;;;;5109437;28;20459;-70
2023/01/02 00:20:25;;;;;;;17.40;8.80;;;11.90;99.90;;;;;;5109613;28;20294;-70
2023/01/02 00:22:51;;;;;;;20.57;8.90;;;11.90;99.90;;;;;;5106004;28;20218;-70
2023/01/02 00:25:18;;;;;;;19.87;9.27;;;11.90;99.90;;;;;;5110816;28;20252;-70
2023/01/02 00:27:45;;;;;;;16.23;8.20;;;11.90;99.90;;;;;;5109392;28;20280;-70
2023/01/02 00:30:12;;;;;;;18.87;9.10;;;11.90;99.90;;;;;;5110208;28;20214;-71
2023/01/02 00:32:39;;;;;;;18.30;8.43;;;11.90;99.90;;;;;;5109279;28;20306;-71
2023/01/02 00:35:06;;;;;;;16.27;8.37;;;11.90;99.90;;;;;;5105874;28;20217;-70
2023/01/02 00:37:33;;;;;;;16.70;8.70;;;11.90;99.90;;;;;;5113130;28;20242;-70
2023/01/02 00:39:59;;;;;;;16.80;8.70;;;11.90;99.90;;;;;;5095767;28;20301;-71
2023/01/02 00:42:26;;;;;;;20.40;8.57;;;11.90;99.90;;;;;;5095281;28;20231;-71
2023/01/02 00:44:53;;;;;;;17.20;9.00;;;11.90;99.90;;;;;;5090135;28;20301;-70
2023/01/02 00:47:19;;;;;;;16.93;8.80;;;12.00;99.90;;;;;;5113036;28;20717;-70
2023/01/02 00:49:46;;;;;;;22.47;9.07;;;12.00;99.90;;;;;;5110455;28;20195;-70
2023/01/02 00:52:13;;;;;;;19.10;8.33;;;11.90;99.90;;;;;;5109606;28;20759;-71
2023/01/02 00:54:39;;;;;;;16.77;8.87;;;11.90;99.90;;;;;;5114026;28;20282;-70
2023/01/02 00:57:06;;;;;;;19.37;8.63;;;12.00;99.90;;;;;;5080666;28;20286;-70
2023/01/02 00:59:33;;;;;;;16.73;8.60;;;12.00;99.90;;;;;;5108239;28;20592;-70
2023/01/02 01:02:00;;;;;;;13.63;8.20;;;12.00;99.90;;;;;;5113452;28;20290;-70
2023/01/02 01:04:26;;;;;;;19.30;9.13;;;12.00;99.90;;;;;;5112648;28;20206;-70
2023/01/02 01:06:53;;;;;;;14.10;8.27;;;11.90;99.90;;;;;;5095083;28;20238;-70
2023/01/02 01:09:20;;;;;;;16.30;8.00;;;11.90;99.90;;;;;;5110915;28;20286;-70
2023/01/02 01:11:47;;;;;;;18.73;9.03;;;12.00;99.90;;;;;;5111891;28;20254;-70
2023/01/02 01:14:13;;;;;;;18.53;8.23;;;12.00;99.90;;;;;;5095066;28;20698;-70
2023/01/02 01:16:40;;;;;;;15.97;7.63;;;12.00;99.90;;;;;;5113273;28;20669;-70
2023/01/02 01:19:07;;;;;;;16.17;7.73;;;12.00;99.90;;;;;;5109951;28;20208;-70
2023/01/02 01:21:34;;;;;;;17.53;8.40;;;12.00;99.90;;;;;;5112782;28;20730;-71
2023/01/02 01:24:01;;;;;;;17.97;7.87;;;12.00;99.90;;;;;;5112852;28;20292;-70
2023/01/02 01:26:28;;;;;;;14.87;6.80;;;12.00;99.90;;;;;;5112936;28;20219;-70
2023/01/02 01:28:55;;;;;;;15.07;7.67;;;12.10;99.90;;;;;;5110046;28;20199;-70
2023/01/02 01:31:23;;;;;;;15.50;7.87;;;12.10;99.90;;;;;;5112142;28;20293;-70
2023/01/02 01:33:50;;;;;;;15.23;8.00;;;12.10;99.90;;;;;;5112946;28;20256;-70
2023/01/02 01:36:19;;;;;;;15.13;7.97;;;12.10;99.90;;;;;;5112636;28;20218;-70
2023/01/02 01:38:46;;;;;;;19.40;8.37;;;12.10;99.90;;;;;;5105977;28;20239;-70
2023/01/02 01:41:16;;;;;;;16.67;7.10;;;12.10;99.90;;;;;;5112774;28;20199;-70
2023/01/02 01:43:45;;;;;;;13.23;8.10;;;12.10;99.90;;;;;;5112513;28;20569;-70
2023/01/02 01:46:37;;;;;;;13.80;7.17;;;12.20;99.90;;;;;;5111755;28;20722;-71
2023/01/02 01:49:26;;;;;;;12.17;7.30;;;12.20;99.90;;;;;;5108602;28;20233;-70
2023/01/02 01:52:00;;;;;;;16.03;8.23;;;12.20;99.90;;;;;;5111349;28;20227;-70
2023/01/02 01:54:32;;;;;;;17.40;7.90;;;12.20;99.90;;;;;;5112509;28;20294;-70
2023/01/02 01:57:04;;;;;;;15.37;7.20;;;12.20;99.90;;;;;;5110619;28;20295;-70
2023/01/02 01:59:33;;;;;;;17.53;7.93;;;12.20;99.90;;;;;;5112414;28;20362;-70
2023/01/02 02:02:00;;;;;;;15.07;7.40;;;12.30;99.90;;;;;;5094624;28;20260;-69
2023/01/02 02:04:27;;;;;;;15.13;7.37;;;12.20;99.90;;;;;;5112404;28;20207;-70
2023/01/02 02:06:54;;;;;;;11.93;7.10;;;12.30;99.90;;;;;;5109356;28;20226;-70
2023/01/02 02:09:37;;;;;;;17.30;7.60;;;12.30;99.90;;;;;;5112149;28;20206;-70
2023/01/02 02:12:05;;;;;;;18.83;7.30;;;12.30;99.90;;;;;;5111600;28;20238;-70
2023/01/02 02:14:33;;;;;;;17.87;7.97;;;12.30;99.90;;;;;;5112619;28;20286;-70
2023/01/02 02:17:08;;;;;;;12.83;7.50;;;12.30;99.90;;;;;;5110451;28;20715;-70
2023/01/02 02:19:40;;;;;;;16.57;7.50;;;12.30;99.90;;;;;;5111581;28;20635;-70
2023/01/02 02:22:20;;;;;;;13.77;7.43;;;12.30;99.90;;;;;;5104064;28;20239;-71
2023/01/02 02:25:22;;;;;;;15.73;8.20;;;12.30;99.90;;;;;;5110885;28;20230;-72
2023/01/02 02:28:07;;;;;;;14.83;6.70;;;12.30;99.90;;;;;;5076920;28;20238;-69
2023/01/02 02:30:43;;;;;;;15.60;6.70;;;12.30;99.90;;;;;;5080787;28;20210;-69
2023/01/02 02:33:25;;;;;;;15.23;7.20;;;12.30;99.90;;;;;;5087782;28;20260;-69
2023/01/02 02:36:05;;;;;;;15.73;6.97;;;12.30;99.90;;;;;;5105510;28;20301;-69
2023/01/02 02:38:47;;;;;;;14.30;7.70;;;12.30;99.90;;;;;;5107556;28;20230;-68
2023/01/02 02:41:25;;;;;;;16.17;7.40;;;12.30;99.90;;;;;;5109621;28;20203;-69
2023/01/02 02:44:11;;;;;;;16.80;7.63;;;12.30;99.90;;;;;;5110456;28;20235;-69
2023/01/02 02:46:59;;;;;;;15.37;6.80;;;12.40;99.90;;;;;;5104151;28;20269;-70
2023/01/02 02:49:48;;;;;;;14.67;7.10;;;12.40;99.90;;;;;;5099244;28;20304;-70
2023/01/02 02:52:23;;;;;;;15.57;7.10;;;12.30;99.90;;;;;;5111156;28;20231;-70
2023/01/02 02:54:59;;;;;;;18.43;7.33;;;12.40;99.90;;;;;;5111128;28;20227;-69
2023/01/02 02:57:28;;;;;;;16.57;7.00;;;12.40;99.90;;;;;;5084518;28;20674;-69
2023/01/02 02:59:55;;;;;;;19.53;7.50;;;12.30;99.90;;;;;;5107355;28;20253;-69
2023/01/02 03:02:21;;;;;;;15.77;7.47;;;12.40;99.90;;;;;;5106967;28;20221;-69
2023/01/02 03:04:57;;;;;;;18.07;7.97;;;12.40;99.90;;;;;;5105990;28;20191;-70
2023/01/02 03:07:28;;;;;;;14.97;6.27;;;12.40;99.90;;;;;;5107332;28;20235;-71
2023/01/02 03:10:15;;;;;;;12.93;6.70;;;12.50;99.90;;;;;;5107975;28;20294;-70
2023/01/02 03:12:50;;;;;;;12.67;6.87;;;12.40;99.90;;;;;;5110238;28;20282;-70
2023/01/02 03:15:39;;;;;;;14.37;6.57;;;12.40;99.90;;;;;;5106819;28;20270;-69
2023/01/02 03:18:06;;;;;;;11.40;7.20;;;12.50;99.90;;;;;;5107955;28;20215;-70
2023/01/02 03:20:39;;;;;;;13.40;6.37;;;12.40;99.90;;;;;;5110790;28;20682;-70
2023/01/02 03:23:11;;;;;;;14.57;6.90;;;12.50;99.90;;;;;;5110981;28;20310;-70
2023/01/02 03:25:40;;;;;;;14.00;7.10;;;12.50;99.90;;;;;;5109419;28;20290;-70
2023/01/02 03:28:10;;;;;;;13.63;7.23;;;12.50;99.90;;;;;;5111160;28;20215;-70
2023/01/02 03:30:39;;;;;;;11.80;6.50;;;12.50;99.90;;;;;;5092328;28;20199;-70
2023/01/02 03:33:16;;;;;;;13.90;7.63;;;12.50;99.90;;;;;;5109346;28;20207;-70
2023/01/02 03:35:48;;;;;;;15.17;6.23;;;12.50;99.90;;;;;;5108771;28;20233;-70
2023/01/02 03:38:23;;;;;;;11.00;6.60;;;12.60;99.90;;;;;;5110801;28;20215;-70
2023/01/02 03:41:05;;;;;;;12.87;7.63;;;12.60;99.90;;;;;;5110675;28;20412;-70
2023/01/02 03:43:34;;;;;;;10.33;5.93;;;12.60;99.90;;;;;;5092206;28;20314;-70
2023/01/02 03:46:09;;;;;;;12.77;5.63;;;12.60;99.90;;;;;;5106065;28;20660;-70
2023/01/02 03:49:03;;;;;;;13.67;6.10;;;12.70;99.90;;;;;;5108288;28;20207;-70
2023/01/02 03:51:31;;;;;;;10.63;5.80;;;12.70;99.90;;;;;;5108821;28;20207;-70
2023/01/02 03:53:59;;;;;;;15.20;6.43;;;12.70;99.90;;;;;;5110176;28;20734;-70
2023/01/02 03:57:12;;;;;;;12.83;6.33;;;12.70;99.90;;;;;;5090285;28;20603;-70
2023/01/02 03:59:51;;;;;;;17.27;6.60;;;12.70;99.90;;;;;;5005648;28;20238;-70
2023/01/02 04:02:39;;;;;;;14.30;6.60;;;12.70;99.90;;;;;;5096352;28;20720;-70
2023/01/02 04:05:14;;;;;;;13.60;6.17;;;12.70;99.90;;;;;;5109209;28;20720;-70
2023/01/02 04:08:00;;;;;;;12.80;5.87;;;12.70;99.90;;;;;;5110482;28;20276;-70
2023/01/02 04:10:28;;;;;;;14.27;5.67;;;12.70;99.90;;;;;;5108593;28;20195;-70
2023/01/02 04:13:01;;;;;;;13.57;5.70;;;12.80;99.90;;;;;;5109989;28;20268;-70
2023/01/02 04:15:32;;;;;;;16.73;6.13;;;12.90;99.90;;;;;;5084204;28;20828;-70
2023/01/02 04:18:04;;;;;;;12.17;5.97;;;12.80;99.90;;;;;;5113937;28;20294;-70
2023/01/02 04:20:35;;;;;;;11.90;6.30;;;12.80;99.90;;;;;;5114020;28;20207;-70
2023/01/02 04:23:07;;;;;;;17.63;6.03;;;12.80;99.90;;;;;;5114262;28;20306;-70
2023/01/02 04:25:43;;;;;;;15.03;6.10;;;12.80;99.90;;;;;;5112863;28;20242;-70
2023/01/02 04:28:21;;;;;;;14.63;6.17;;;12.90;99.90;;;;;;5111524;28;20269;-70
2023/01/02 04:30:54;;;;;;;10.90;5.97;;;12.90;99.90;;;;;;5113992;28;20209;-70
2023/01/02 04:33:22;;;;;;;12.40;6.07;;;12.80;99.90;;;;;;5112784;28;20211;-69
2023/01/02 04:35:49;;;;;;;11.77;5.50;;;12.90;99.90;;;;;;5108411;28;20278;-69
2023/01/02 04:38:15;;;;;;;10.83;5.80;;;12.90;99.90;;;;;;5113543;28;20217;-70
2023/01/02 04:40:42;;;;;;;14.80;6.13;;;12.90;99.90;;;;;;5095629;28;20206;-69
2023/01/02 04:43:20;;;;;;;14.10;6.50;;;12.90;99.90;;;;;;5113114;28;20280;-69
2023/01/02 04:45:48;;;;;;;10.17;6.30;;;12.90;99.90;;;;;;5109087;28;20283;-69
2023/01/02 04:48:15;;;;;;;11.47;6.10;;;12.90;99.90;;;;;;5109925;28;20231;-69
2023/01/02 04:50:43;;;;;;;14.60;6.13;;;12.90;99.90;;;;;;5112140;28;20199;-69
2023/01/02 04:53:10;;;;;;;11.43;5.93;;;12.90;99.90;;;;;;5112273;28;20215;-70
2023/01/02 04:55:37;;;;;;;12.33;5.63;;;12.90;99.90;;;;;;5112331;28;20199;-70
2023/01/02 04:58:04;;;;;;;11.30;5.80;;;12.90;99.90;;;;;;5112770;28;20195;-69
2023/01/02 05:00:31;;;;;;;15.10;7.30;;;12.90;99.90;;;;;;5113511;28;20230;-69
2023/01/02 05:03:00;;;;;;;13.27;5.70;;;12.80;99.90;;;;;;5112609;28;20245;-70
2023/01/02 05:05:27;;;;;;;9.63;6.10;;;12.80;99.90;;;;;;5112535;28;20591;-70
2023/01/02 05:07:54;;;;;;;12.60;5.70;;;12.80;99.90;;;;;;5094755;28;20769;-68
2023/01/02 05:10:20;;;;;;;12.90;5.70;;;12.90;99.90;;;;;;5112722;28;20199;-69
2023/01/02 05:12:47;;;;;;;9.27;5.80;;;12.90;99.90;;;;;;5094861;28;20315;-69
2023/01/02 05:15:14;;;;;;;10.43;5.90;;;12.90;99.90;;;;;;5113293;28;20671;-69
2023/01/02 05:17:41;;;;;;;8.07;4.90;;;12.80;99.90;;;;;;5113465;28;20294;-71
2023/01/02 05:20:10;;;;;;;8.90;5.10;;;12.90;99.90;;;;;;5107906;28;20292;-68
2023/01/02 05:25:25;;;;;;;8.87;5.90;;;12.90;99.90;;;;;;5111696;28;20234;-71
2023/01/02 05:27:53;;;;;;;12.70;6.10;;;12.90;99.90;;;;;;5094922;28;20219;-70
2023/01/02 05:30:20;;;;;;;8.10;5.20;;;12.90;99.90;;;;;;5106456;28;20226;-69
2023/01/02 05:32:47;;;;;;;11.90;5.30;;;12.90;99.90;;;;;;5111433;28;20645;-69
2023/01/02 05:35:14;;;;;;;9.87;5.27;;;12.90;99.90;;;;;;5112809;28;20318;-70
2023/01/02 05:37:41;;;;;;;10.43;5.73;;;12.90;99.90;;;;;;5094532;28;20246;-70
2023/01/02 05:40:08;;;;;;;8.47;5.73;;;12.90;99.90;;;;;;5107406;28;20211;-69
2023/01/02 05:42:35;;;;;;;11.93;6.00;;;12.90;99.90;;;;;;5112203;28;20357;-70
2023/01/02 05:45:02;;;;;;;10.67;5.60;;;12.90;99.90;;;;;;5108769;28;20624;-70
2023/01/02 05:47:29;;;;;;;9.93;5.50;;;12.90;99.90;;;;;;5089799;28;20326;-69
2023/01/02 05:49:55;;;;;;;10.67;5.70;;;12.90;99.90;;;;;;5106954;28;20293;-70
2023/01/02 05:52:22;;;;;;;12.13;5.60;;;13.00;99.90;;;;;;5104905;28;20223;-70
2023/01/02 05:54:49;;;;;;;11.00;5.80;;;13.00;99.90;;;;;;5112414;28;20195;-69
2023/01/02 05:57:16;;;;;;;9.17;5.77;;;12.90;99.90;;;;;;5110701;28;20195;-69
2023/01/02 05:59:42;;;;;;;8.70;5.20;;;12.90;99.90;;;;;;5110506;28;20231;-70
2023/01/02 06:02:09;;;;;;;11.10;5.17;;;12.90;99.90;;;;;;5111485;28;20199;-69
2023/01/02 06:04:36;;;;;;;10.83;5.80;;;13.00;99.90;;;;;;5107544;28;20286;-70
2023/01/02 06:07:03;;;;;;;9.93;5.43;;;12.90;99.90;;;;;;5110059;28;20215;-69
2023/01/02 06:09:29;;;;;;;10.80;5.47;;;12.90;99.90;;;;;;5088375;28;20829;-69
2023/01/02 06:11:56;;;;;;;10.93;5.77;;;13.00;99.90;;;;;;5107353;28;20223;-69
2023/01/02 06:14:23;;;;;;;8.83;5.33;;;12.90;99.90;;;;;;5108805;28;20199;-69
2023/01/02 06:16:50;;;;;;;11.93;5.53;;;12.90;99.90;;;;;;5105658;28;20250;-69
2023/01/02 06:19:17;;;;;;;10.50;5.70;;;13.00;99.90;;;;;;5105423;28;20690;-69
2023/01/02 06:21:44;;;;;;;10.17;5.00;;;13.00;99.90;;;;;;5075166;28;20592;-69
2023/01/02 06:24:10;;;;;;;11.10;6.67;;;13.00;99.90;;;;;;5109469;28;20195;-69
2023/01/02 06:26:37;;;;;;;12.80;6.30;;;13.00;99.90;;;;;;5104339;28;20202;-69
2023/01/02 06:29:04;;;;;;;10.70;6.10;;;13.00;99.90;;;;;;5090270;28;20306;-69
2023/01/02 06:31:32;;;;;;;10.43;5.97;;;13.00;99.90;;;;;;5109388;28;20566;-68
2023/01/02 06:34:01;;;;;;;11.87;6.03;;;13.00;99.90;;;;;;5108174;28;20282;-68
2023/01/02 06:36:30;;;;;;;10.73;6.40;;;12.90;99.90;;;;;;5111259;28;20298;-68
2023/01/02 06:38:57;;;;;;;16.13;7.43;;;12.80;99.90;;;;;;5111236;28;20567;-69
2023/01/02 06:41:24;;;;;;;13.67;6.47;;;12.80;99.90;;;;;;5109938;28;20221;-69
2023/01/02 06:43:51;;;;;;;10.30;5.28;;;12.80;99.90;;;;;;5108237;28;20565;-68
2023/01/02 06:46:20;;;;;;;5.77;3.60;;;12.70;99.90;;;;;;5089715;28;20232;-69
2023/01/02 06:48:47;;;;;;;4.73;3.03;;;12.60;99.90;;;;;;5084332;28;20350;-69
2023/01/02 06:51:16;;;;;;;2.70;2.30;;;12.50;99.90;;;;;;5107964;28;20294;-69
2023/01/02 06:53:44;;;;;;;1.93;1.77;;;12.40;99.90;;;;;;5109517;28;20315;-68
2023/01/02 06:56:12;;;;;;;2.00;1.63;;;12.30;99.90;;;;;;5091897;28;20655;-69
2023/01/02 06:58:38;;;;;;;1.60;1.50;;;12.10;99.90;;;;;;5089806;28;20230;-69
2023/01/02 07:01:10;;;;;;;1.20;1.10;;;12.00;99.90;;;;;;5109768;28;20203;-69
2023/01/02 07:03:37;;;;;;;1.40;1.30;;;11.90;99.90;;;;;;5109506;28;20203;-69
2023/01/02 07:06:10;;;;;;;1.67;1.40;;;11.70;99.90;;;;;;5110685;28;20210;-70
2023/01/02 07:08:38;;;;;;;1.60;1.40;;;11.60;99.90;;;;;;5110415;28;20776;-70
2023/01/02 07:11:06;;;;;;;1.53;1.43;;;11.50;99.90;;;;;;5105457;28;20653;-69
2023/01/02 07:13:33;;;;;;;2.20;1.77;;;11.40;99.90;;;;;;5111072;28;20665;-70
2023/01/02 07:16:02;;;;;;;2.27;2.07;;;11.40;99.90;;;;;;5111762;28;20195;-69
2023/01/02 07:18:30;;;;;;;2.43;2.00;;;11.30;99.90;;;;;;5110695;28;20646;-69
2023/01/02 07:20:56;;;;;;;4.20;2.50;;;11.10;99.90;;;;;;5110360;28;20659;-69
2023/01/02 07:23:23;;;;;;;3.20;2.57;;;11.10;99.90;;;;;;5110362;28;20223;-70
2023/01/02 07:25:58;;;;;;;3.10;2.57;;;11.00;99.90;;;;;;5109969;28;20335;-69
2023/01/02 07:28:27;;;;;;;3.10;2.57;;;10.90;99.90;;;;;;5092688;28;20629;-69
2023/01/02 07:30:58;;;;;;;3.17;2.53;;;10.90;99.90;;;;;;5107457;28;20747;-69
2023/01/02 07:33:27;;;;;;;2.70;2.37;;;10.90;99.90;;;;;;5107454;28;20207;-69
2023/01/02 07:36:05;;;;;;;3.87;3.30;;;10.80;99.90;;;;;;5108020;28;20305;-70
2023/01/02 07:38:33;;;;;;;4.60;3.37;;;10.80;99.90;;;;;;5108442;28;20310;-69
2023/01/02 07:40:59;;;;;;;5.73;4.00;;;10.80;99.90;;;;;;5110567;28;20195;-70
2023/01/02 07:43:26;;;;;;;5.23;3.67;;;10.80;99.90;;;;;;5110102;28;20372;-70
2023/01/02 07:45:53;;;;;;;4.47;3.57;;;10.80;99.90;;;;;;5081935;28;20211;-71
2023/01/02 07:48:20;;;;;;;3.90;3.47;;;10.80;99.90;;;;;;5110440;28;20326;-69
2023/01/02 07:50:46;;;;;;;4.97;3.57;;;10.70;99.90;;;;;;5109516;28;20298;-70
2023/01/02 07:53:13;;;;;;;5.17;3.67;;;10.80;99.90;;;;;;5107233;28;20331;-69
2023/01/02 07:55:40;;;;;;;5.37;3.70;;;10.70;99.90;;;;;;5110227;28;20198;-69
2023/01/02 07:58:07;;;;;;;5.17;3.70;;;10.70;99.90;;;;;;5110375;28;20226;-70
2023/01/02 08:00:33;;;;;;;7.80;4.20;;;10.70;99.90;;;;;;5107843;28;20297;-69
2023/01/02 08:03:00;;;;;;;6.03;4.40;;;10.60;99.90;;;;;;5110012;28;20794;-69
2023/01/02 08:05:27;;;;;;;6.13;4.63;;;10.60;99.90;;;;;;5110125;28;20252;-69
2023/01/02 08:07:54;;;;;;;5.13;3.80;;;10.60;99.90;;;;;;5091672;28;20291;-69
2023/01/02 08:10:21;;;;;;;7.40;4.40;;;10.60;99.90;;;;;;5110345;28;20573;-69
2023/01/02 08:12:48;;;;;;;5.97;4.07;;;10.60;99.90;;;;;;5110067;28;20203;-69
2023/01/02 08:15:15;;;;;;;6.17;4.00;;;10.60;99.90;;;;;;5110105;28;20696;-70
2023/01/02 08:17:41;;;;;;;5.80;4.07;;;10.60;99.90;;;;;;5109977;28;20199;-70
2023/01/02 08:20:09;;;;;;;5.27;3.30;;;10.60;99.90;;;;;;5109937;28;20272;-70
2023/01/02 08:22:36;;;;;;;5.60;4.00;;;10.50;99.90;;;;;;5108926;28;20310;-69
2023/01/02 08:25:03;;;;;;;5.03;3.67;;;10.50;99.90;;;;;;5091995;28;20256;-69
2023/01/02 08:27:30;;;;;;;5.60;3.67;;;10.50;99.90;;;;;;5110164;28;20203;-70
2023/01/02 08:29:57;;;;;;;6.40;4.30;;;10.50;99.90;;;;;;5109570;28;20207;-71
2023/01/02 08:32:24;;;;;;;8.67;4.43;;;10.50;99.90;;;;;;5109672;28;20234;-69
2023/01/02 08:34:51;;;;;;;6.73;4.77;;;10.60;99.90;;;;;;5091649;28;20301;-69
2023/01/02 08:37:18;;;;;;;6.83;4.80;;;10.50;99.90;;;;;;5109245;28;20302;-69
2023/01/02 08:39:44;;;;;;;7.10;4.53;;;10.50;99.90;;;;;;5109155;28;20207;-69
2023/01/02 08:42:11;;;;;;;6.07;4.10;;;10.50;99.90;;;;;;5109431;28;20277;-69
2023/01/02 08:44:38;;;;;;;6.33;4.60;;;10.50;99.90;;;;;;5110376;28;20625;-68
2023/01/02 08:47:04;;;;;;;6.67;4.17;;;10.40;99.90;;;;;;5110077;28;20211;-69
2023/01/02 08:49:31;;;;;;;7.57;4.50;;;10.40;99.90;;;;;;5110167;28;20709;-69
2023/01/02 08:51:58;;;;;;;7.13;4.27;;;10.40;99.90;;;;;;5109946;28;20218;-70
2023/01/02 08:54:25;;;;;;;5.77;4.30;;;10.40;99.90;;;;;;5091300;28;20227;-69
2023/01/02 08:56:51;;;;;;;5.27;3.97;;;10.40;99.90;;;;;;5111320;28;20303;-69
2023/01/02 08:59:18;;;;;;;5.60;4.07;;;10.40;99.90;;;;;;5113734;28;20310;-69
2023/01/02 09:01:45;;;;;;;5.50;3.07;;;10.40;99.90;;;;;;5113392;28;20239;-69
2023/01/02 09:04:12;;;;;;;4.97;3.27;;;10.40;99.90;;;;;;5109156;28;20242;-69
2023/01/02 09:06:40;;;;;;;5.07;3.20;;;10.40;99.90;;;;;;5095103;28;20203;-69
2023/01/02 09:09:08;;;;;;;4.60;2.83;;;10.40;99.90;;;;;;5095291;28;20225;-70
2023/01/02 09:11:44;;;;;;;3.33;2.30;;;10.40;99.90;;;;;;5111589;28;20214;-70
2023/01/02 09:14:10;;;;;;;3.23;2.77;;;10.40;99.90;;;;;;5110027;28;20293;-70
2023/01/02 09:16:37;;;;;;;3.97;2.47;;;10.40;99.90;;;;;;5110983;28;20753;-70
2023/01/02 09:19:04;;;;;;;4.83;2.43;;;10.30;99.90;;;;;;5095122;28;20203;-69
2023/01/02 09:21:31;;;;;;;4.87;2.73;;;10.30;99.90;;;;;;5093030;28;20735;-70
2023/01/02 09:23:57;;;;;;;6.97;3.97;;;10.40;99.90;;;;;;5108202;28;20336;-70
2023/01/02 09:26:24;;;;;;;4.27;2.60;;;10.40;99.90;;;;;;5106438;28;20256;-70
2023/01/02 09:28:51;;;;;;;4.57;2.60;;;10.30;99.90;;;;;;5109195;28;20565;-70
2023/01/02 09:31:19;;;;;;;6.47;2.93;;;10.40;99.90;;;;;;5110211;28;20289;-70
2023/01/02 09:33:46;;;;;;;4.93;2.20;;;10.30;99.90;;;;;;5111491;28;20207;-69
2023/01/02 09:36:16;;;;;;;2.97;2.37;;;10.40;99.90;;;;;;5110287;28;20227;-69
2023/01/02 09:38:43;;;;;;;5.73;2.60;;;10.30;99.90;;;;;;5112491;28;20250;-69
2023/01/02 09:41:25;;;;;;;4.33;2.20;;;10.30;99.90;;;;;;5109233;28;20803;-70
2023/01/02 09:44:10;;;;;;;3.10;1.90;;;10.30;99.90;;;;;;5112351;28;20322;-70
2023/01/02 09:47:04;;;;;;;5.50;1.73;;;10.20;99.90;;;;;;5110309;28;20210;-70
2023/01/02 09:49:42;;;;;;;6.00;1.90;;;10.10;99.90;;;;;;5086482;28;20239;-70
2023/01/02 09:52:16;;;;;;;2.83;1.87;;;10.10;99.90;;;;;;5108094;28;20310;-69
2023/01/02 09:54:43;;;;;;;3.30;1.40;;;10.00;99.90;;;;;;5111858;28;20622;-70
2023/01/02 09:57:10;;;;;;;5.47;1.70;;;10.00;99.90;;;;;;5090734;28;20214;-70
2023/01/02 09:59:49;;;;;;;2.73;1.53;;;10.10;99.90;;;;;;5097544;28;20199;-69
2023/01/02 10:02:35;;;;;;;3.10;1.47;;;10.10;99.90;;;;;;5101511;28;20230;-70
2023/01/02 10:05:25;;;;;;;2.47;1.60;;;10.20;99.90;;;;;;5110175;28;20207;-70
2023/01/02 10:08:02;;;;;;;3.63;1.80;;;10.30;99.90;;;;;;5110830;28;20308;-70
2023/01/02 10:10:44;;;;;;;3.10;2.10;;;10.30;99.90;;;;;;5105482;28;20535;-69
2023/01/02 10:13:32;;;;;;;2.63;1.73;;;10.40;99.90;;;;;;5112195;28;20715;-69
2023/01/02 10:16:25;;;;;;;4.37;1.73;;;10.40;99.90;;;;;;5088653;28;20206;-70
2023/01/02 10:18:53;;;;;;;3.97;2.10;;;10.40;99.90;;;;;;5093621;28;20207;-70
2023/01/02 10:21:25;;;;;;;6.07;2.03;;;10.40;99.90;;;;;;5108705;28;20257;-70
2023/01/02 10:24:06;;;;;;;3.00;2.27;;;10.30;99.90;;;;;;5111666;28;20247;-70
2023/01/02 10:26:36;;;;;;;4.53;2.20;;;10.40;99.90;;;;;;5110068;28;20246;-70
2023/01/02 10:29:14;;;;;;;6.23;2.43;;;10.40;99.90;;;;;;5111541;28;20231;-70
2023/01/02 10:31:44;;;;;;;5.10;2.17;;;10.40;99.90;;;;;;5104359;28;20184;-69
2023/01/02 10:34:15;;;;;;;5.23;2.40;;;10.30;99.90;;;;;;5107596;28;20230;-70
2023/01/02 10:36:45;;;;;;;5.03;2.33;;;10.40;99.90;;;;;;5110529;28;20298;-70
2023/01/02 10:39:15;;;;;;;4.33;2.43;;;10.40;99.90;;;;;;5111414;28;20519;-69
2023/01/02 10:41:46;;;;;;;7.07;2.90;;;10.40;99.90;;;;;;5111599;28;20689;-70
2023/01/02 10:44:18;;;;;;;4.53;2.30;;;10.40;99.90;;;;;;5092343;28;20224;-69
2023/01/02 10:46:45;;;;;;;5.07;2.80;;;10.50;99.90;;;;;;5089764;28;20213;-70
2023/01/02 10:49:13;;;;;;;8.43;3.07;;;10.50;99.90;;;;;;5087811;28;20308;-70
2023/01/02 10:52:06;;;;;;;7.63;3.63;;;10.50;99.90;;;;;;5109422;28;20199;-71
2023/01/02 10:54:51;;;;;;;7.47;2.80;;;10.50;99.90;;;;;;5107687;28;20553;-68
2023/01/02 10:57:49;;;;;;;6.43;3.80;;;10.50;99.90;;;;;;5110521;28;20218;-68
2023/01/02 11:00:19;;;;;;;7.13;3.63;;;10.60;99.90;;;;;;5108205;28;20256;-69
2023/01/02 11:03:04;;;;;;;8.53;3.60;;;10.60;99.90;;;;;;5106854;28;20251;-69
2023/01/02 11:05:31;;;;;;;7.80;4.93;;;10.70;99.90;;;;;;5107854;28;20202;-69
2023/01/02 11:07:58;;;;;;;9.00;5.00;;;10.70;99.90;;;;;;5107002;28;20227;-69
2023/01/02 11:10:33;;;;;;;11.50;5.00;;;10.70;99.90;;;;;;5110888;28;20649;-69
2023/01/02 11:13:08;;;;;;;7.20;5.60;;;10.80;99.90;;;;;;5107564;28;20616;-69
2023/01/02 11:15:46;;;;;;;10.67;6.30;;;10.70;99.90;;;;;;5110381;28;20220;-69
2023/01/02 11:18:25;;;;;;;10.43;6.27;;;10.70;99.90;;;;;;5109553;28;20246;-69
2023/01/02 11:21:02;;;;;;;9.27;6.77;;;10.70;99.90;;;;;;5107975;28;20722;-71
2023/01/02 11:23:36;;;;;;;13.23;7.50;;;10.80;99.90;;;;;;5107689;28;20217;-70
2023/01/02 11:26:09;;;;;;;11.30;6.80;;;10.70;99.90;;;;;;5110693;28;20245;-69
2023/01/02 11:28:39;;;;;;;8.53;7.00;;;10.80;99.90;;;;;;5106521;28;20294;-69
2023/01/02 11:31:44;;;;;;;13.17;7.57;;;10.80;99.90;;;;;;5104110;28;20651;-69
2023/01/02 11:34:34;;;;;;;11.33;6.47;;;10.80;99.90;;;;;;5107118;28;20203;-69
2023/01/02 11:37:03;;;;;;;9.93;5.90;;;10.70;99.90;;;;;;5099066;28;20214;-69
2023/01/02 11:39:32;;;;;;;8.10;6.20;;;10.70;99.90;;;;;;5106019;28;20630;-68
2023/01/02 11:45:07;;;;;;;10.73;5.30;;;10.70;99.90;;;;;;5105549;28;20293;-70
2023/01/02 11:47:59;;;;;;;9.80;5.70;;;10.60;99.90;;;;;;5109019;28;20281;-68
2023/01/02 11:50:29;;;;;;;9.67;4.73;;;10.60;99.90;;;;;;5107041;28;20314;-68
2023/01/02 11:53:18;;;;;;;7.87;4.40;;;10.60;99.90;;;;;;5084570;28;20219;-70
2023/01/02 11:56:01;;;;;;;8.30;4.20;;;10.60;99.90;;;;;;5109630;28;20207;-70
2023/01/02 11:58:49;;;;;;;10.67;4.57;;;10.70;99.90;;;;;;5104789;28;20957;-69
2023/01/02 12:01:38;;;;;;;12.53;4.80;;;10.60;99.90;;;;;;5084503;28;20592;-68
2023/01/02 12:04:05;;;;;;;8.50;4.97;;;10.60;99.90;;;;;;5109936;28;20207;-69
2023/01/02 12:06:32;;;;;;;10.20;5.37;;;10.60;99.90;;;;;;5101096;28;20204;-69
2023/01/02 12:09:12;;;;;;;12.40;4.97;;;10.50;99.90;;;;;;5104752;28;20732;-70
2023/01/02 12:11:54;;;;;;;11.70;5.07;;;10.50;99.90;;;;;;5088885;28;20647;-69
2023/01/02 12:14:52;;;;;;;8.73;4.70;;;10.70;99.90;;;;;;5088157;28;20327;-69
2023/01/02 12:17:44;;;;;;;11.83;4.90;;;10.60;99.90;;;;;;5056683;28;20308;-68
2023/01/02 12:20:27;;;;;;;8.03;5.37;;;10.80;99.90;;;;;;5110312;28;20191;-68
2023/01/02 12:23:27;;;;;;;8.47;4.70;;;10.80;99.90;;;;;;5107226;28;20877;-70
2023/01/02 12:26:23;;;;;;;12.23;5.17;;;10.70;99.90;;;;;;5107588;28;20199;-70
2023/01/02 12:29:15;;;;;;;10.27;4.97;;;10.80;99.90;;;;;;5109579;28;20709;-69
2023/01/02 12:32:23;;;;;;;9.53;4.60;;;10.80;99.90;;;;;;5109233;28;20198;-69
2023/01/02 12:35:24;;;;;;;9.37;5.03;;;10.80;99.90;;;;;;5113813;28;20195;-70
2023/01/02 12:37:57;;;;;;;10.33;5.27;;;10.80;99.90;;;;;;5113727;28;20215;-68
2023/01/02 12:41:12;;;;;;;7.43;4.47;;;10.70;99.90;;;;;;5110175;28;20238;-70
2023/01/02 12:44:07;;;;;;;11.23;5.63;;;10.70;99.90;;;;;;5057816;28;20804;-70
2023/01/02 12:46:52;;;;;;;8.17;5.40;;;10.80;99.90;;;;;;5100335;28;20199;-72
2023/01/02 12:49:39;;;;;;;8.23;4.53;;;10.70;99.90;;;;;;5108813;28;20314;-70
2023/01/02 12:52:22;;;;;;;8.03;5.07;;;10.80;99.90;;;;;;5113265;28;20251;-69
2023/01/02 12:55:22;;;;;;;8.93;4.40;;;10.80;99.90;;;;;;5113824;28;20199;-68
2023/01/02 12:57:56;;;;;;;9.80;4.23;;;10.80;99.90;;;;;;5112229;28;20196;-69
2023/01/02 13:00:52;;;;;;;8.07;4.47;;;10.80;99.90;;;;;;5110222;28;20697;-69
2023/01/02 13:03:40;;;;;;;7.60;4.30;;;10.70;99.90;;;;;;5109948;28;20203;-69
2023/01/02 13:06:13;;;;;;;5.77;3.50;;;10.80;99.90;;;;;;5112903;28;20210;-70
2023/01/02 13:09:11;;;;;;;16.43;5.00;;;10.90;99.90;;;;;;5108382;28;20707;-69
2023/01/02 13:12:03;;;;;;;9.87;3.97;;;10.90;99.90;;;;;;5112737;28;20243;-68
2023/01/02 13:15:07;;;;;;;9.70;3.87;;;10.80;99.90;;;;;;5113176;28;20566;-69